Time;durP1;ratioP1;P1;durP2;ratioP2;P2;SDS_P1;SDS_P2;PMS_P1;PMS_P2;Temp;Humidity;BMP_temperature;BMP_pressure;BME280_temperature;BME280_humidity;BME280_pressure;Samples;Min_cycle;Max_cycle;Signal;HPM_P1;HPM_P2
2022/07/09 00:01:26;;;;;;;7.22;4.35;;;17.00;99.90;;;;;;5035854;28;20036;-62
2022/07/09 00:03:52;;;;;;;8.02;4.35;;;16.90;99.90;;;;;;5043341;28;20029;-63
2022/07/09 00:06:18;;;;;;;8.20;4.30;;;17.00;99.90;;;;;;5035572;28;20036;-63
2022/07/09 00:08:44;;;;;;;7.45;4.30;;;17.00;99.90;;;;;;5036990;28;20559;-65
2022/07/09 00:11:09;;;;;;;5.30;3.90;;;17.00;99.90;;;;;;5041487;28;20039;-63
2022/07/09 00:13:35;;;;;;;5.85;3.78;;;16.90;99.90;;;;;;5036741;28;20750;-63
2022/07/09 00:16:01;;;;;;;7.18;4.47;;;16.90;99.90;;;;;;5038819;28;20116;-63
2022/07/09 00:18:26;;;;;;;5.85;4.18;;;16.90;99.90;;;;;;5039265;28;20966;-62
2022/07/09 00:20:56;;;;;;;8.95;4.68;;;16.90;99.90;;;;;;5042111;28;20060;-64
2022/07/09 00:23:22;;;;;;;8.15;4.50;;;16.90;99.90;;;;;;5033810;28;20105;-63
2022/07/09 00:25:47;;;;;;;6.38;4.50;;;16.90;99.90;;;;;;5036521;28;20109;-63
2022/07/09 00:28:13;;;;;;;8.75;4.60;;;16.90;99.90;;;;;;5034537;28;20040;-63
2022/07/09 00:30:39;;;;;;;11.00;5.25;;;16.90;99.90;;;;;;5044012;28;20020;-65
2022/07/09 00:33:04;;;;;;;6.95;5.03;;;16.80;99.90;;;;;;5040529;28;20035;-63
2022/07/09 00:35:30;;;;;;;9.57;5.57;;;16.70;99.90;;;;;;5040769;28;20039;-63
2022/07/09 00:37:56;;;;;;;8.35;5.45;;;16.60;99.90;;;;;;5040247;28;20051;-63
2022/07/09 00:40:21;;;;;;;6.57;5.25;;;16.60;99.90;;;;;;5038238;28;20022;-63
2022/07/09 00:42:47;;;;;;;12.15;5.53;;;16.60;99.90;;;;;;5043094;28;20115;-63
2022/07/09 00:45:13;;;;;;;8.60;5.47;;;16.60;99.90;;;;;;5042500;28;20871;-63
2022/07/09 00:47:38;;;;;;;11.57;6.30;;;16.60;99.90;;;;;;5035016;28;20099;-64
2022/07/09 00:50:05;;;;;;;10.15;6.18;;;16.60;99.90;;;;;;5037920;28;20056;-64
2022/07/09 00:52:32;;;;;;;8.40;5.80;;;16.60;99.90;;;;;;5041651;28;20765;-62
2022/07/09 00:55:00;;;;;;;9.80;6.28;;;16.60;99.90;;;;;;5039032;28;20528;-63
2022/07/09 00:57:27;;;;;;;10.30;6.95;;;16.70;99.90;;;;;;5036797;28;20179;-63
2022/07/09 00:59:53;;;;;;;8.40;5.50;;;16.60;99.90;;;;;;5037825;28;20528;-64
2022/07/09 01:02:21;;;;;;;10.60;6.10;;;16.60;99.90;;;;;;5042950;28;20032;-63
2022/07/09 01:04:47;;;;;;;10.68;6.80;;;16.60;99.90;;;;;;5041829;28;20033;-62
2022/07/09 01:07:12;;;;;;;8.25;6.03;;;16.70;99.90;;;;;;5030746;28;20036;-62
2022/07/09 01:09:38;;;;;;;8.45;6.28;;;16.60;99.90;;;;;;5040667;28;20029;-62
2022/07/09 01:12:05;;;;;;;9.95;6.15;;;16.50;99.90;;;;;;5041183;28;20094;-64
2022/07/09 01:14:30;;;;;;;9.57;6.70;;;16.40;99.90;;;;;;5041234;28;20028;-64
2022/07/09 01:17:04;;;;;;;8.18;6.45;;;16.60;99.90;;;;;;5040368;28;20029;-63
2022/07/09 01:19:32;;;;;;;10.63;6.40;;;16.50;99.90;;;;;;5037680;28;20865;-64
2022/07/09 01:21:58;;;;;;;10.70;6.60;;;16.40;99.90;;;;;;5037446;28;20808;-64
2022/07/09 01:24:24;;;;;;;7.88;6.40;;;16.50;99.90;;;;;;5033816;28;20017;-63
2022/07/09 01:26:52;;;;;;;7.57;6.28;;;16.50;99.90;;;;;;5034114;28;20110;-63
2022/07/09 01:29:18;;;;;;;9.20;6.93;;;16.30;99.90;;;;;;5038724;28;20029;-63
2022/07/09 01:31:44;;;;;;;10.57;7.40;;;16.30;99.90;;;;;;5038448;28;20033;-65
2022/07/09 01:34:09;;;;;;;11.27;8.25;;;16.20;99.90;;;;;;5040409;28;20092;-64
2022/07/09 01:36:35;;;;;;;8.80;7.90;;;16.20;99.90;;;;;;5036776;28;20033;-63
2022/07/09 01:39:01;;;;;;;12.23;8.77;;;16.20;99.90;;;;;;5041559;28;20060;-63
2022/07/09 01:41:26;;;;;;;12.20;8.50;;;16.30;99.90;;;;;;5034834;28;20059;-64
2022/07/09 01:43:52;;;;;;;13.02;9.27;;;16.30;99.90;;;;;;5038748;28;20044;-64
2022/07/09 01:46:17;;;;;;;13.95;9.90;;;16.30;99.90;;;;;;5044103;28;20063;-63
2022/07/09 01:48:43;;;;;;;17.75;9.98;;;16.30;99.90;;;;;;5039539;28;20035;-63
2022/07/09 01:51:09;;;;;;;16.65;10.77;;;16.30;99.90;;;;;;5039205;28;20071;-63
2022/07/09 01:53:36;;;;;;;12.75;10.48;;;16.40;99.90;;;;;;5037085;28;20024;-63
2022/07/09 01:56:08;;;;;;;12.90;10.73;;;16.40;99.90;;;;;;5027799;28;20086;-63
2022/07/09 01:58:34;;;;;;;13.80;10.63;;;16.20;99.90;;;;;;5032979;28;20057;-63
2022/07/09 02:01:00;;;;;;;14.65;11.13;;;16.20;99.90;;;;;;5036755;28;20499;-63
2022/07/09 02:03:26;;;;;;;13.05;10.93;;;16.10;99.90;;;;;;5038838;28;20052;-62
2022/07/09 02:05:51;;;;;;;14.73;12.00;;;16.20;99.90;;;;;;5039805;28;20025;-64
2022/07/09 02:08:17;;;;;;;13.75;10.90;;;16.20;99.90;;;;;;5033867;28;20087;-63
2022/07/09 02:10:43;;;;;;;12.73;11.43;;;16.20;99.90;;;;;;5033425;28;20029;-62
2022/07/09 02:13:08;;;;;;;12.43;11.02;;;16.20;99.90;;;;;;5034429;28;20017;-64
2022/07/09 02:15:34;;;;;;;14.10;11.25;;;16.30;99.90;;;;;;5034072;28;20091;-64
2022/07/09 02:18:00;;;;;;;14.05;11.65;;;16.30;99.90;;;;;;5032796;28;20025;-64
2022/07/09 02:20:25;;;;;;;15.70;12.57;;;16.20;99.90;;;;;;5035701;28;20454;-63
2022/07/09 02:22:51;;;;;;;15.68;12.63;;;16.30;99.90;;;;;;5035889;28;20017;-63
2022/07/09 02:25:17;;;;;;;14.10;12.40;;;16.20;99.90;;;;;;5037673;28;20497;-63
2022/07/09 02:27:42;;;;;;;16.13;12.50;;;16.20;99.90;;;;;;5029315;28;20042;-64
2022/07/09 02:30:08;;;;;;;13.63;12.32;;;16.10;99.90;;;;;;5030936;28;20025;-63
2022/07/09 02:32:36;;;;;;;14.68;12.13;;;16.00;99.90;;;;;;5038572;28;20028;-63
2022/07/09 02:35:02;;;;;;;14.68;13.02;;;16.00;99.90;;;;;;5034058;28;20083;-64
2022/07/09 02:37:27;;;;;;;15.45;13.93;;;16.10;99.90;;;;;;5039403;28;20063;-63
2022/07/09 02:39:53;;;;;;;14.75;13.13;;;16.20;99.90;;;;;;5030787;28;20028;-62
2022/07/09 02:42:18;;;;;;;18.25;14.00;;;16.10;99.90;;;;;;5033743;28;20025;-63
2022/07/09 02:44:44;;;;;;;19.45;13.98;;;16.10;99.90;;;;;;5030973;28;20016;-64
2022/07/09 02:47:09;;;;;;;18.70;14.25;;;16.00;99.90;;;;;;5034018;28;20107;-64
2022/07/09 02:49:35;;;;;;;25.35;16.95;;;16.00;99.90;;;;;;5032101;28;20029;-63
2022/07/09 02:52:01;;;;;;;20.35;17.13;;;16.20;99.90;;;;;;5037187;28;20474;-63
2022/07/09 02:54:28;;;;;;;19.20;16.85;;;16.30;99.90;;;;;;5035098;28;20012;-64
2022/07/09 02:56:53;;;;;;;23.95;17.77;;;16.30;99.90;;;;;;5041551;28;20021;-62
2022/07/09 02:59:20;;;;;;;26.65;18.27;;;16.30;99.90;;;;;;5032058;28;20112;-63
2022/07/09 03:01:46;;;;;;;21.35;17.60;;;16.40;99.90;;;;;;5035424;28;20489;-64
2022/07/09 03:04:12;;;;;;;19.67;17.63;;;16.20;99.90;;;;;;5036242;28;20611;-62
2022/07/09 03:06:38;;;;;;;23.50;18.80;;;16.20;99.90;;;;;;5030163;28;20028;-64
2022/07/09 03:09:04;;;;;;;20.38;17.88;;;16.10;99.90;;;;;;5036999;28;20032;-64
2022/07/09 03:11:29;;;;;;;23.90;18.25;;;16.20;99.90;;;;;;5029740;28;20032;-63
2022/07/09 03:13:55;;;;;;;18.48;16.58;;;16.20;99.90;;;;;;5036388;28;20035;-64
2022/07/09 03:16:20;;;;;;;22.02;18.25;;;16.10;99.90;;;;;;5040991;28;20041;-63
2022/07/09 03:18:46;;;;;;;23.48;17.75;;;16.10;99.90;;;;;;5035055;28;20041;-64
2022/07/09 03:21:12;;;;;;;23.52;19.25;;;16.10;99.90;;;;;;5035421;28;20021;-64
2022/07/09 03:23:39;;;;;;;25.50;21.27;;;16.10;99.90;;;;;;5035728;28;20018;-64
2022/07/09 03:26:06;;;;;;;20.95;18.77;;;16.20;99.90;;;;;;5036620;28;20060;-62
2022/07/09 03:28:32;;;;;;;22.35;18.92;;;16.10;99.90;;;;;;5040057;28;20517;-62
2022/07/09 03:30:57;;;;;;;24.45;19.05;;;16.00;99.90;;;;;;5036681;28;20029;-63
2022/07/09 03:33:23;;;;;;;22.80;19.10;;;16.00;99.90;;;;;;5031971;28;20029;-64
2022/07/09 03:35:49;;;;;;;21.73;19.52;;;16.00;99.90;;;;;;5034349;28;20021;-65
2022/07/09 03:38:14;;;;;;;22.50;20.17;;;16.00;99.90;;;;;;5041832;28;20025;-63
2022/07/09 03:40:40;;;;;;;21.90;19.40;;;15.90;99.90;;;;;;5037642;28;20039;-64
2022/07/09 03:43:05;;;;;;;22.33;19.92;;;15.90;99.90;;;;;;5042083;28;20025;-64
2022/07/09 03:45:31;;;;;;;23.15;19.45;;;15.90;99.90;;;;;;5042657;28;20029;-64
2022/07/09 03:47:56;;;;;;;23.35;19.92;;;15.90;99.90;;;;;;5041274;28;20413;-65
2022/07/09 03:50:22;;;;;;;22.13;18.65;;;15.80;99.90;;;;;;5039746;28;20021;-64
2022/07/09 03:52:48;;;;;;;23.02;20.55;;;15.90;99.90;;;;;;5036883;28;20019;-63
2022/07/09 03:55:13;;;;;;;22.58;20.23;;;15.90;99.90;;;;;;5041993;28;20628;-63
2022/07/09 03:57:39;;;;;;;24.58;20.45;;;15.80;99.90;;;;;;5038041;28;20505;-63
2022/07/09 04:00:06;;;;;;;22.15;19.90;;;15.80;99.90;;;;;;5039766;28;20013;-64
2022/07/09 04:02:31;;;;;;;26.13;20.90;;;15.70;99.90;;;;;;5043973;28;20021;-64
2022/07/09 04:04:57;;;;;;;23.85;19.98;;;15.70;99.90;;;;;;5031357;28;20087;-63
2022/07/09 04:07:26;;;;;;;24.10;21.40;;;15.70;99.90;;;;;;5033434;28;20021;-62
2022/07/09 04:09:53;;;;;;;22.13;19.85;;;15.80;99.90;;;;;;5036967;28;20563;-64
2022/07/09 04:12:18;;;;;;;22.45;20.13;;;15.90;99.90;;;;;;5037018;28;20055;-62
2022/07/09 04:14:44;;;;;;;26.13;20.75;;;15.80;99.90;;;;;;5034518;28;20629;-64
2022/07/09 04:17:09;;;;;;;23.45;20.88;;;15.90;99.90;;;;;;5037502;28;20029;-63
2022/07/09 04:19:35;;;;;;;22.95;20.27;;;15.90;99.90;;;;;;5028349;28;20771;-63
2022/07/09 04:22:02;;;;;;;24.98;22.08;;;15.90;99.90;;;;;;5043656;28;20479;-64
2022/07/09 04:24:28;;;;;;;22.48;20.08;;;15.90;99.90;;;;;;5041024;28;20021;-63
2022/07/09 04:26:53;;;;;;;24.30;21.70;;;15.90;99.90;;;;;;5034178;28;20021;-62
2022/07/09 04:29:19;;;;;;;26.20;22.80;;;16.00;99.90;;;;;;5032647;28;20075;-64
2022/07/09 04:31:44;;;;;;;24.77;22.17;;;15.90;99.90;;;;;;5039455;28;20032;-64
2022/07/09 04:34:10;;;;;;;29.35;24.52;;;16.00;99.90;;;;;;5037667;28;20060;-62
2022/07/09 04:36:35;;;;;;;32.10;25.55;;;16.10;99.90;;;;;;5043060;28;20651;-64
2022/07/09 04:39:01;;;;;;;31.65;27.10;;;16.30;99.90;;;;;;5040774;28;20033;-65
2022/07/09 04:41:28;;;;;;;33.60;28.90;;;16.30;99.90;;;;;;5039506;28;20021;-65
2022/07/09 04:43:54;;;;;;;35.90;29.08;;;16.30;99.90;;;;;;5037188;28;20114;-64
2022/07/09 04:46:21;;;;;;;32.22;28.73;;;16.50;99.90;;;;;;5042339;28;20500;-65
2022/07/09 04:48:48;;;;;;;35.05;29.98;;;16.50;99.90;;;;;;5038547;28;20040;-64
2022/07/09 04:51:13;;;;;;;33.83;28.70;;;16.50;99.90;;;;;;5042217;28;20889;-64
2022/07/09 04:53:39;;;;;;;33.35;29.58;;;16.50;99.90;;;;;;5034602;28;20029;-62
2022/07/09 04:56:06;;;;;;;36.83;30.08;;;16.70;99.90;;;;;;5037826;28;20021;-63
2022/07/09 04:58:32;;;;;;;39.00;32.33;;;16.70;99.90;;;;;;5034597;28;20028;-65
2022/07/09 05:00:57;;;;;;;33.35;29.83;;;16.70;99.90;;;;;;5043085;28;20644;-65
2022/07/09 05:03:24;;;;;;;33.95;28.02;;;16.80;99.90;;;;;;5039621;28;20075;-64
2022/07/09 05:05:50;;;;;;;40.67;32.55;;;;;;;;;;5029661;28;20041;-62
2022/07/09 05:08:15;;;;;;;40.05;30.10;;;17.00;99.90;;;;;;5036277;28;20112;-64
2022/07/09 05:10:41;;;;;;;36.95;30.75;;;17.10;99.90;;;;;;5034938;28;20038;-62
2022/07/09 05:13:07;;;;;;;35.80;31.20;;;17.10;99.90;;;;;;5038108;28;20028;-62
2022/07/09 05:15:33;;;;;;;36.53;31.73;;;17.10;99.90;;;;;;5038434;28;20036;-63
2022/07/09 05:17:59;;;;;;;39.47;31.67;;;17.20;99.90;;;;;;5036141;28;20053;-63
2022/07/09 05:20:25;;;;;;;39.30;32.45;;;17.30;99.90;;;;;;5037552;28;20522;-63
2022/07/09 05:22:51;;;;;;;42.13;34.20;;;;;;;;;;5036794;28;20049;-64
2022/07/09 05:25:17;;;;;;;36.08;31.98;;;17.50;99.90;;;;;;5039944;28;20511;-65
2022/07/09 05:27:44;;;;;;;38.42;31.98;;;17.50;99.90;;;;;;5033636;28;20026;-65
2022/07/09 05:30:10;;;;;;;37.78;32.42;;;17.50;99.90;;;;;;5035517;28;20065;-64
2022/07/09 05:32:36;;;;;;;40.05;32.65;;;17.60;99.90;;;;;;5028625;28;20646;-64
2022/07/09 05:35:01;;;;;;;41.55;32.72;;;17.60;99.90;;;;;;5042004;28;20024;-62
2022/07/09 05:37:27;;;;;;;37.22;31.30;;;17.60;99.90;;;;;;5040870;28;20361;-64
2022/07/09 05:39:55;;;;;;;41.28;30.92;;;17.20;99.90;;;;;;5038497;28;20750;-63
2022/07/09 05:42:21;;;;;;;39.47;33.08;;;17.40;99.90;;;;;;5036608;28;20025;-64
2022/07/09 05:44:47;;;;;;;36.30;30.25;;;17.60;99.90;;;;;;5032329;28;20036;-63
2022/07/09 05:47:12;;;;;;;37.22;30.85;;;17.60;99.90;;;;;;5039182;28;20033;-64
2022/07/09 05:49:38;;;;;;;36.75;31.40;;;17.70;99.90;;;;;;5037579;28;20021;-64
2022/07/09 05:52:03;;;;;;;37.17;30.35;;;17.80;99.90;;;;;;5035848;28;20028;-65
2022/07/09 05:54:29;;;;;;;38.33;31.58;;;17.50;99.90;;;;;;5036837;28;20026;-63
2022/07/09 05:56:55;;;;;;;46.25;34.80;;;17.60;99.90;;;;;;5030526;28;20021;-64
2022/07/09 05:59:20;;;;;;;38.53;31.38;;;17.90;99.90;;;;;;5035635;28;20024;-62
2022/07/09 06:01:47;;;;;;;39.00;32.05;;;;;;;;;;5040323;28;20757;-63
2022/07/09 06:04:13;;;;;;;39.47;31.33;;;18.10;99.90;;;;;;5037949;28;20028;-64
2022/07/09 06:06:39;;;;;;;40.35;32.63;;;18.30;99.90;;;;;;5034771;28;20437;-63
2022/07/09 06:09:04;;;;;;;36.17;29.77;;;18.40;99.90;;;;;;5039546;28;20107;-65
2022/07/09 06:11:30;;;;;;;38.65;30.08;;;18.60;99.90;;;;;;5034273;28;20093;-64
2022/07/09 06:13:55;;;;;;;34.95;27.77;;;18.70;99.90;;;;;;5027647;28;20061;-64
2022/07/09 06:16:21;;;;;;;38.63;28.92;;;18.60;99.90;;;;;;5032010;28;20040;-63
2022/07/09 06:18:46;;;;;;;30.38;26.92;;;18.60;99.90;;;;;;5033149;28;20013;-65
2022/07/09 06:21:12;;;;;;;34.20;27.00;;;18.70;99.90;;;;;;5039606;28;20029;-65
2022/07/09 06:23:38;;;;;;;33.75;26.52;;;18.90;99.90;;;;;;5037638;28;20021;-63
2022/07/09 06:26:03;;;;;;;31.45;26.15;;;18.80;99.90;;;;;;5037222;28;20087;-64
2022/07/09 06:28:29;;;;;;;35.35;25.90;;;19.00;99.90;;;;;;5033825;28;20131;-64
2022/07/09 06:30:54;;;;;;;30.80;22.65;;;18.90;99.90;;;;;;5038034;28;20162;-64
2022/07/09 06:33:20;;;;;;;26.20;21.02;;;19.20;99.90;;;;;;5036370;28;20108;-64
2022/07/09 06:35:46;;;;;;;29.27;21.38;;;19.00;99.90;;;;;;5034708;28;20036;-63
2022/07/09 06:38:11;;;;;;;24.30;19.63;;;19.10;99.90;;;;;;5033578;28;20230;-63
2022/07/09 06:40:37;;;;;;;24.98;17.48;;;18.90;99.90;;;;;;5035812;28;20017;-63
2022/07/09 06:43:03;;;;;;;21.13;17.00;;;18.90;99.90;;;;;;5029261;28;20028;-63
2022/07/09 06:45:29;;;;;;;25.33;19.48;;;19.10;99.90;;;;;;5041074;28;20033;-64
2022/07/09 06:47:54;;;;;;;19.67;15.75;;;19.20;99.90;;;;;;5036311;28;20040;-62
2022/07/09 06:50:20;;;;;;;20.45;15.75;;;19.20;99.90;;;;;;5036194;28;20027;-64
2022/07/09 06:52:46;;;;;;;16.40;11.38;;;19.10;99.90;;;;;;5030962;28;20026;-63
2022/07/09 06:55:11;;;;;;;13.95;11.85;;;19.20;99.90;;;;;;5031685;28;20112;-63
2022/07/09 06:57:37;;;;;;;15.48;11.55;;;19.20;99.90;;;;;;5032775;28;20700;-64
2022/07/09 07:00:05;;;;;;;10.40;8.23;;;19.10;99.90;;;;;;5035658;28;20032;-63
2022/07/09 07:02:30;;;;;;;10.32;8.60;;;19.30;99.90;;;;;;5041053;28;20051;-63
2022/07/09 07:04:56;;;;;;;13.45;9.05;;;19.40;99.90;;;;;;5033633;28;20033;-63
2022/07/09 07:07:22;;;;;;;13.30;9.05;;;19.60;99.90;;;;;;5035553;28;20117;-63
2022/07/09 07:09:47;;;;;;;9.77;7.10;;;19.70;99.90;;;;;;5036099;28;20280;-63
2022/07/09 07:12:13;;;;;;;8.85;6.07;;;19.70;99.90;;;;;;5038892;28;20025;-63
2022/07/09 07:14:38;;;;;;;9.10;6.53;;;19.90;99.90;;;;;;5028767;28;20441;-63
2022/07/09 07:17:04;;;;;;;7.75;6.00;;;19.90;99.90;;;;;;5039901;28;20027;-64
2022/07/09 07:19:30;;;;;;;7.85;7.05;;;19.90;99.90;;;;;;5031247;28;20029;-64
2022/07/09 07:21:55;;;;;;;8.85;7.07;;;19.80;99.90;;;;;;5040023;28;20087;-63
2022/07/09 07:24:21;;;;;;;7.85;6.30;;;19.90;99.90;;;;;;5032191;28;20020;-63
2022/07/09 07:26:46;;;;;;;8.00;5.63;;;19.90;99.90;;;;;;5037131;28;20032;-63
2022/07/09 07:29:12;;;;;;;7.53;6.50;;;19.80;99.90;;;;;;5033425;28;20029;-64
2022/07/09 07:31:38;;;;;;;10.52;7.10;;;19.90;99.90;;;;;;5034420;28;20029;-63
2022/07/09 07:34:03;;;;;;;9.40;7.57;;;20.20;99.90;;;;;;5036479;28;20036;-63
2022/07/09 07:36:29;;;;;;;7.65;6.85;;;20.10;99.90;;;;;;5032333;28;20120;-64
2022/07/09 07:38:55;;;;;;;11.02;7.88;;;20.30;99.90;;;;;;5037458;28;20021;-63
2022/07/09 07:41:21;;;;;;;11.32;6.72;;;20.30;99.90;;;;;;5037721;28;20397;-63
2022/07/09 07:43:47;;;;;;;7.55;6.75;;;20.40;99.90;;;;;;5029121;28;20013;-64
2022/07/09 07:46:13;;;;;;;7.03;6.25;;;20.40;99.90;;;;;;5031674;28;20046;-63
2022/07/09 07:48:40;;;;;;;7.57;6.22;;;20.40;99.90;;;;;;5033682;28;20766;-64
2022/07/09 07:51:07;;;;;;;5.97;5.22;;;20.40;99.90;;;;;;5035198;28;20064;-64
2022/07/09 07:53:33;;;;;;;5.72;4.50;;;20.50;99.90;;;;;;5034262;28;20682;-63
2022/07/09 07:56:00;;;;;;;4.03;3.58;;;20.70;99.90;;;;;;5037808;28;20060;-63
2022/07/09 07:58:26;;;;;;;5.40;3.50;;;20.70;99.90;;;;;;5032750;28;20022;-63
2022/07/09 08:00:52;;;;;;;9.48;4.15;;;20.70;99.90;;;;;;5028096;28;20028;-64
2022/07/09 08:03:17;;;;;;;6.65;4.38;;;20.70;99.90;;;;;;5042902;28;20121;-62
2022/07/09 08:05:43;;;;;;;4.30;3.90;;;20.70;99.90;;;;;;5034006;28;20150;-64
2022/07/09 08:08:08;;;;;;;4.45;3.35;;;20.70;99.90;;;;;;5031246;28;20039;-65
2022/07/09 08:10:34;;;;;;;6.47;3.88;;;20.80;99.90;;;;;;5036326;28;20057;-62
2022/07/09 08:12:59;;;;;;;7.13;5.15;;;21.00;99.90;;;;;;5036291;28;20177;-63
2022/07/09 08:15:25;;;;;;;8.20;4.40;;;21.00;99.90;;;;;;5039871;28;20041;-63
2022/07/09 08:17:51;;;;;;;5.68;4.03;;;20.90;99.90;;;;;;5039177;28;20697;-62
2022/07/09 08:20:16;;;;;;;7.93;4.30;;;21.00;99.90;;;;;;5039910;28;20033;-63
2022/07/09 08:22:42;;;;;;;4.65;4.10;;;20.90;99.90;;;;;;5039100;28;20021;-64
2022/07/09 08:25:08;;;;;;;5.35;4.43;;;20.90;99.90;;;;;;5039527;28;20035;-64
2022/07/09 08:27:33;;;;;;;4.20;3.50;;;21.20;99.90;;;;;;5032743;28;20029;-63
2022/07/09 08:29:59;;;;;;;6.95;3.20;;;21.20;99.90;;;;;;5038675;28;20044;-62
2022/07/09 08:32:24;;;;;;;5.75;3.47;;;21.30;99.90;;;;;;5037593;28;20036;-59
2022/07/09 08:34:50;;;;;;;7.40;4.50;;;21.20;99.90;;;;;;5041913;28;20025;-63
2022/07/09 08:37:15;;;;;;;3.92;2.95;;;21.20;99.90;;;;;;5041251;28;20060;-64
2022/07/09 08:39:41;;;;;;;7.60;3.35;;;21.30;99.90;;;;;;5033085;28;20033;-66
2022/07/09 08:42:10;;;;;;;5.55;3.08;;;21.30;99.90;;;;;;5040057;28;20860;-62
2022/07/09 08:44:42;;;;;;;7.28;2.70;;;21.10;99.90;;;;;;5037433;28;20083;-63
2022/07/09 08:47:13;;;;;;;5.63;2.70;;;21.20;99.90;;;;;;5039479;28;20037;-61
2022/07/09 08:49:40;;;;;;;5.68;2.50;;;21.20;99.90;;;;;;5042783;28;20405;-63
2022/07/09 08:52:06;;;;;;;5.60;2.53;;;21.20;99.90;;;;;;5039087;28;20527;-61
2022/07/09 08:54:36;;;;;;;5.53;2.50;;;21.30;99.90;;;;;;5040756;28;20553;-63
2022/07/09 08:57:02;;;;;;;4.80;2.40;;;21.20;99.90;;;;;;5038616;28;20389;-62
2022/07/09 08:59:27;;;;;;;2.42;1.92;;;21.20;99.90;;;;;;5044495;28;20021;-62
2022/07/09 09:01:53;;;;;;;4.25;2.25;;;21.40;99.90;;;;;;5040632;28;20048;-63
2022/07/09 09:04:19;;;;;;;5.07;2.30;;;21.50;99.90;;;;;;5042567;28;20040;-62
2022/07/09 09:06:45;;;;;;;4.28;2.30;;;21.60;99.90;;;;;;5042184;28;20484;-61
2022/07/09 09:09:18;;;;;;;4.13;2.55;;;21.80;99.90;;;;;;5029709;28;20029;-61
2022/07/09 09:11:48;;;;;;;3.28;2.10;;;22.00;99.90;;;;;;5038969;28;20030;-62
2022/07/09 09:14:20;;;;;;;5.45;1.80;;;22.10;99.90;;;;;;5027155;28;20032;-62
2022/07/09 09:16:46;;;;;;;3.22;1.73;;;22.40;99.90;;;;;;5043730;28;20032;-62
2022/07/09 09:19:12;;;;;;;4.15;1.60;;;22.40;99.90;;;;;;5034222;28;20082;-62
2022/07/09 09:21:38;;;;;;;1.98;1.20;;;22.50;99.90;;;;;;5041832;28;20378;-63
2022/07/09 09:24:04;;;;;;;2.08;1.40;;;22.60;99.90;;;;;;5037365;28;20041;-62
2022/07/09 09:26:29;;;;;;;2.03;1.25;;;22.50;99.90;;;;;;5038700;28;20615;-62
2022/07/09 09:29:01;;;;;;;2.83;1.42;;;22.60;99.90;;;;;;5043693;28;20044;-63
2022/07/09 09:31:28;;;;;;;2.45;1.33;;;22.50;99.90;;;;;;5039074;28;20029;-62
2022/07/09 09:33:56;;;;;;;3.00;1.35;;;22.60;99.90;;;;;;5035952;28;20053;-62
2022/07/09 09:36:31;;;;;;;2.92;1.25;;;22.70;99.90;;;;;;5040986;28;20102;-62
2022/07/09 09:39:22;;;;;;;1.35;1.00;;;22.50;99.90;;;;;;5044643;28;20137;-61
2022/07/09 09:41:59;;;;;;;1.85;1.10;;;22.70;99.90;;;;;;5046416;28;20013;-61
2022/07/09 09:44:30;;;;;;;1.92;1.00;;;22.80;99.90;;;;;;5036839;28;20419;-61
2022/07/09 09:46:57;;;;;;;1.42;1.00;;;23.10;99.90;;;;;;5032810;28;20082;-62
2022/07/09 09:49:24;;;;;;;4.43;1.05;;;23.30;99.90;;;;;;5029327;28;20056;-62
2022/07/09 09:52:02;;;;;;;3.22;1.15;;;23.10;99.90;;;;;;5037100;28;20024;-63
2022/07/09 09:54:28;;;;;;;1.23;1.02;;;23.20;99.90;;;;;;5037781;28;20052;-62
2022/07/09 09:56:54;;;;;;;2.75;1.10;;;23.10;99.90;;;;;;5031061;28;20017;-62
2022/07/09 09:59:20;;;;;;;1.48;1.10;;;23.00;99.90;;;;;;5040266;28;20534;-62
2022/07/09 10:01:46;;;;;;;2.42;0.90;;;23.10;99.90;;;;;;5034785;28;20095;-62
2022/07/09 10:04:14;;;;;;;0.98;0.68;;;23.30;99.90;;;;;;5026972;28;20091;-62
2022/07/09 10:06:41;;;;;;;1.13;0.90;;;23.30;99.90;;;;;;5032910;28;20067;-61
2022/07/09 10:09:11;;;;;;;1.23;0.85;;;23.40;99.90;;;;;;5033998;28;20032;-63
2022/07/09 10:11:45;;;;;;;1.00;0.80;;;23.20;99.90;;;;;;5037599;28;20139;-59
2022/07/09 10:14:23;;;;;;;1.40;1.10;;;23.10;99.90;;;;;;5053843;28;20052;-57
2022/07/09 10:16:48;;;;;;;2.65;1.20;;;23.00;99.90;;;;;;5036050;28;20036;-58
2022/07/09 10:19:29;;;;;;;2.38;1.10;;;;;;;;;;5034425;28;20025;-62
2022/07/09 10:21:56;;;;;;;2.55;1.33;;;22.80;99.90;;;;;;5030067;28;20069;-66
2022/07/09 10:24:25;;;;;;;2.70;1.30;;;23.00;99.90;;;;;;5027045;28;20025;-65
2022/07/09 10:26:51;;;;;;;3.97;1.35;;;23.10;99.90;;;;;;5026019;28;20029;-65
2022/07/09 10:29:25;;;;;;;2.97;1.40;;;23.00;99.90;;;;;;5028231;28;20040;-64
2022/07/09 10:31:51;;;;;;;4.35;1.65;;;23.20;99.90;;;;;;5034081;28;20040;-64
2022/07/09 10:34:40;;;;;;;2.63;1.50;;;23.50;99.90;;;;;;5035294;28;20056;-65
2022/07/09 10:37:06;;;;;;;2.45;1.50;;;23.50;99.90;;;;;;5040073;28;20484;-66
2022/07/09 10:39:32;;;;;;;2.85;1.55;;;23.40;99.90;;;;;;5035640;28;20024;-66
2022/07/09 10:42:18;;;;;;;3.92;1.85;;;23.50;99.90;;;;;;5036975;28;20040;-65
2022/07/09 10:44:45;;;;;;;2.58;1.77;;;22.00;99.90;;;;;;5036308;28;20021;-64
2022/07/09 10:47:12;;;;;;;5.18;2.00;;;23.40;99.90;;;;;;5030036;28;20155;-66
2022/07/09 10:49:38;;;;;;;3.80;1.65;;;23.40;99.90;;;;;;5030455;28;20050;-66
2022/07/09 10:52:06;;;;;;;3.08;1.73;;;23.40;99.90;;;;;;5035080;28;20028;-66
2022/07/09 10:54:32;;;;;;;3.40;2.17;;;23.90;99.90;;;;;;5042503;28;20032;-66
2022/07/09 10:56:58;;;;;;;3.30;2.22;;;24.00;99.90;;;;;;5038772;28;20087;-66
2022/07/09 10:59:25;;;;;;;4.53;1.83;;;24.80;99.90;;;;;;5036134;28;20028;-65
2022/07/09 11:01:51;;;;;;;3.30;2.28;;;23.80;99.90;;;;;;5050842;28;20280;-66
2022/07/09 11:04:31;;;;;;;4.43;2.30;;;24.00;99.90;;;;;;5040398;28;20028;-67
2022/07/09 11:06:57;;;;;;;3.40;2.28;;;23.70;99.90;;;;;;5031015;28;20037;-65
2022/07/09 11:09:27;;;;;;;6.07;2.25;;;23.80;99.90;;;;;;5038627;28;20262;-66
2022/07/09 11:11:53;;;;;;;6.35;2.20;;;23.90;99.90;;;;;;5035270;28;20025;-65
2022/07/09 11:14:19;;;;;;;3.17;2.10;;;25.50;99.90;;;;;;5037020;28;20044;-65
2022/07/09 11:17:00;;;;;;;4.00;2.20;;;23.40;99.90;;;;;;5036619;28;20426;-64
2022/07/09 11:19:29;;;;;;;5.93;2.17;;;23.80;99.90;;;;;;5033005;28;20400;-64
2022/07/09 11:22:02;;;;;;;4.75;2.20;;;23.60;99.90;;;;;;5052739;28;20036;-65
2022/07/09 11:24:29;;;;;;;6.50;2.60;;;23.40;99.90;;;;;;5031408;28;20633;-65
2022/07/09 11:26:55;;;;;;;4.55;2.70;;;23.40;99.90;;;;;;5037307;28;20025;-65
2022/07/09 11:29:20;;;;;;;4.47;2.80;;;23.50;99.90;;;;;;5035774;28;20033;-64
2022/07/09 11:31:48;;;;;;;6.38;3.17;;;23.60;99.90;;;;;;5034171;28;20041;-65
2022/07/09 11:34:16;;;;;;;5.65;2.95;;;23.90;99.90;;;;;;5035387;28;20052;-65
2022/07/09 11:36:44;;;;;;;6.38;3.35;;;24.00;99.90;;;;;;5034694;28;20024;-64
2022/07/09 11:39:20;;;;;;;6.40;4.28;;;23.90;99.90;;;;;;5042229;28;20029;-64
2022/07/09 11:41:46;;;;;;;6.55;4.40;;;23.90;99.90;;;;;;5046328;28;20032;-64
2022/07/09 11:44:20;;;;;;;7.38;4.45;;;23.80;99.90;;;;;;5046142;28;20032;-65
2022/07/09 11:46:46;;;;;;;11.02;5.50;;;23.90;99.90;;;;;;5039583;28;20343;-65
2022/07/09 11:49:15;;;;;;;7.63;4.97;;;23.80;99.90;;;;;;5040320;28;20710;-65
2022/07/09 11:51:41;;;;;;;13.13;5.45;;;23.40;99.90;;;;;;5036379;28;20729;-64
2022/07/09 11:54:07;;;;;;;9.55;5.45;;;23.60;99.90;;;;;;5046174;28;20029;-64
2022/07/09 11:56:45;;;;;;;10.73;5.65;;;23.60;99.90;;;;;;5045210;28;20028;-64
2022/07/09 11:59:13;;;;;;;7.72;5.40;;;23.80;99.90;;;;;;5040146;28;20318;-64
2022/07/09 12:01:39;;;;;;;8.85;4.40;;;23.90;99.90;;;;;;5039744;28;20034;-64
2022/07/09 12:04:05;;;;;;;10.95;6.15;;;24.20;99.90;;;;;;5040969;28;20044;-64
2022/07/09 12:06:30;;;;;;;9.75;5.10;;;24.20;99.90;;;;;;5032108;28;20323;-64
2022/07/09 12:09:04;;;;;;;9.32;5.53;;;24.10;99.90;;;;;;5036975;28;20032;-65
2022/07/09 12:11:30;;;;;;;8.38;6.18;;;24.00;99.90;;;;;;5037834;28;20116;-64
2022/07/09 12:13:56;;;;;;;9.48;6.80;;;24.30;99.90;;;;;;5040184;28;20025;-64
2022/07/09 12:16:22;;;;;;;11.18;6.30;;;24.90;99.90;;;;;;5029795;28;20041;-64
2022/07/09 12:18:47;;;;;;;7.70;4.78;;;24.50;99.90;;;;;;5032156;28;20437;-64
2022/07/09 12:21:13;;;;;;;9.85;6.90;;;24.80;99.90;;;;;;5035720;28;20024;-65
2022/07/09 12:23:38;;;;;;;9.55;5.82;;;24.20;99.90;;;;;;5040344;28;20025;-64
2022/07/09 12:26:04;;;;;;;9.20;6.05;;;24.40;99.90;;;;;;5037667;28;20032;-65
2022/07/09 12:28:30;;;;;;;6.82;4.75;;;24.30;99.90;;;;;;5039400;28;20039;-64
2022/07/09 12:30:55;;;;;;;14.63;8.68;;;24.50;99.90;;;;;;5033153;28;20732;-61
2022/07/09 12:33:21;;;;;;;11.90;6.35;;;24.30;99.90;;;;;;5044263;28;20505;-62
2022/07/09 12:35:46;;;;;;;9.43;5.60;;;24.50;99.90;;;;;;5037669;28;20029;-70